createdAt,value
2019-06-15T00:00:00.814Z,0.50
2019-06-15T00:01:00.808Z,0.60
2019-06-15T00:02:01.615Z,0.50
2019-06-15T00:03:00.821Z,0.70
2019-06-15T00:04:00.773Z,0.60
2019-06-15T00:05:00.778Z,0.40
2019-06-15T00:06:00.740Z,0.40
2019-06-15T00:07:01.141Z,0.50
2019-06-15T00:08:00.721Z,0.50
2019-06-15T00:09:00.707Z,0.50
2019-06-15T00:10:01.588Z,0.60
2019-06-15T00:11:00.686Z,0.60
2019-06-15T00:12:00.697Z,0.70
2019-06-15T00:13:00.665Z,0.40
2019-06-15T00:14:01.580Z,0.50
2019-06-15T00:15:00.680Z,0.50
2019-06-15T00:16:00.652Z,0.60
2019-06-15T00:17:00.642Z,0.60
2019-06-15T00:18:00.615Z,0.50
2019-06-15T00:19:01.557Z,0.50
2019-06-15T00:20:00.603Z,1.00
2019-06-15T00:21:00.585Z,0.60
2019-06-15T00:22:00.585Z,0.50
2019-06-15T00:23:00.563Z,0.50
2019-06-15T00:24:00.556Z,0.70
2019-06-15T00:25:00.538Z,0.50
2019-06-15T00:26:01.067Z,0.50
2019-06-15T00:27:00.598Z,0.50
2019-06-15T00:28:00.510Z,0.70
2019-06-15T00:29:01.058Z,0.60
2019-06-15T00:30:01.107Z,0.80
2019-06-15T00:31:00.514Z,0.60
2019-06-15T00:32:00.464Z,0.70
2019-06-15T00:33:00.591Z,0.60
2019-06-15T00:34:00.453Z,0.50
2019-06-15T00:35:01.061Z,0.70
2019-06-15T00:36:00.440Z,0.50
2019-06-15T00:37:00.411Z,0.90
2019-06-15T00:38:00.449Z,0.50
2019-06-15T00:39:00.389Z,0.60
2019-06-15T00:40:01.061Z,0.40
2019-06-15T00:41:00.386Z,0.80
2019-06-15T00:42:00.373Z,0.60
2019-06-15T00:43:00.351Z,0.50
2019-06-15T00:44:00.332Z,0.50
2019-06-15T00:45:00.328Z,0.50
2019-06-15T00:46:00.324Z,0.60
2019-06-15T00:47:01.060Z,0.60
2019-06-15T00:48:00.304Z,0.50
2019-06-15T00:49:00.304Z,0.60
2019-06-15T00:50:00.278Z,0.70
2019-06-15T00:51:00.263Z,0.50
2019-06-15T00:52:00.296Z,0.60
2019-06-15T00:53:00.243Z,0.50
2019-06-15T00:54:00.261Z,0.50
2019-06-15T00:55:00.222Z,0.50
2019-06-15T00:56:01.070Z,0.60
2019-06-15T00:57:00.190Z,0.60
2019-06-15T00:58:00.194Z,0.70
2019-06-15T00:59:00.177Z,0.50
2019-06-15T01:00:00.157Z,0.60
2019-06-15T01:01:01.102Z,0.60
2019-06-15T01:02:01.094Z,0.50
2019-06-15T01:03:00.688Z,0.50
2019-06-15T01:04:00.131Z,0.40
2019-06-15T01:05:00.116Z,0.70
2019-06-15T01:06:01.063Z,0.70
2019-06-15T01:07:00.116Z,0.70
2019-06-15T01:08:00.083Z,0.70
2019-06-15T01:09:00.066Z,0.60
2019-06-15T01:10:00.585Z,0.70
2019-06-15T01:11:00.069Z,0.70
2019-06-15T01:12:00.052Z,0.60
2019-06-15T01:13:00.064Z,0.60
2019-06-15T01:14:00.043Z,0.60
2019-06-15T01:15:00.560Z,0.80
2019-06-15T01:15:59.994Z,0.60
2019-06-15T01:17:00.566Z,0.60
2019-06-15T01:18:00.162Z,0.70
2019-06-15T01:18:59.949Z,0.70
2019-06-15T01:20:00.573Z,0.70
2019-06-15T01:20:59.963Z,0.40
2019-06-15T01:21:59.947Z,0.70
2019-06-15T01:22:59.953Z,0.60
2019-06-15T01:23:59.915Z,0.70
2019-06-15T01:25:05.646Z,0.50
2019-06-15T01:25:59.872Z,0.60
2019-06-15T01:26:59.889Z,0.50
2019-06-15T01:28:00.585Z,0.50
2019-06-15T01:28:59.853Z,0.50
2019-06-15T01:29:59.864Z,0.70
2019-06-15T01:30:59.818Z,0.70
2019-06-15T01:31:59.809Z,0.50
2019-06-15T01:32:59.809Z,0.60
2019-06-15T01:33:59.808Z,0.80
2019-06-15T01:34:59.795Z,0.50
2019-06-15T01:35:59.768Z,0.70
2019-06-15T01:37:00.590Z,0.70
2019-06-15T01:37:59.753Z,0.60
2019-06-15T01:39:00.098Z,0.60
2019-06-15T01:39:59.738Z,0.80
2019-06-15T01:40:59.739Z,0.60
2019-06-15T01:41:59.705Z,0.50
2019-06-15T01:43:00.559Z,0.60
2019-06-15T01:44:00.094Z,0.70
2019-06-15T01:44:59.673Z,0.50
2019-06-15T01:45:59.677Z,0.60
2019-06-15T01:46:59.651Z,0.60
2019-06-15T01:47:59.635Z,0.60
2019-06-15T01:49:00.097Z,0.70
2019-06-15T01:49:59.619Z,0.60
2019-06-15T01:50:59.700Z,0.50
2019-06-15T01:52:00.597Z,0.60
2019-06-15T01:53:00.599Z,0.50
2019-06-15T01:53:59.590Z,0.50
2019-06-15T01:54:59.562Z,0.50
2019-06-15T01:55:59.565Z,0.60
2019-06-15T01:56:59.584Z,0.70
2019-06-15T01:58:00.076Z,0.70
2019-06-15T01:58:59.531Z,0.60
2019-06-15T01:59:59.516Z,0.50
2019-06-15T02:00:59.501Z,0.70
2019-06-15T02:01:59.513Z,0.60
2019-06-15T02:02:59.500Z,0.70
2019-06-15T02:03:59.521Z,0.60
2019-06-15T02:04:59.457Z,0.80
2019-06-15T02:05:59.442Z,0.70
2019-06-15T02:07:00.082Z,0.70
2019-06-15T02:07:59.425Z,0.60
2019-06-15T02:08:59.425Z,0.70
2019-06-15T02:10:00.073Z,0.90
2019-06-15T02:10:59.391Z,0.60
2019-06-15T02:12:00.139Z,0.70
2019-06-15T02:12:59.360Z,0.70
2019-06-15T02:13:59.596Z,0.50
2019-06-15T02:15:00.091Z,0.80
2019-06-15T02:16:02.076Z,0.60
2019-06-15T02:17:00.101Z,0.60
2019-06-15T02:17:59.317Z,0.60
2019-06-15T02:18:59.334Z,0.80
2019-06-15T02:19:59.320Z,0.60
2019-06-15T02:20:59.282Z,0.50
2019-06-15T02:21:59.298Z,0.80
2019-06-15T02:22:59.271Z,0.80
2019-06-15T02:23:59.247Z,0.70
2019-06-15T02:24:59.263Z,0.80
2019-06-15T02:25:59.239Z,0.60
2019-06-15T02:26:59.228Z,0.50
2019-06-15T02:28:00.084Z,0.70
2019-06-15T02:28:59.192Z,0.90
2019-06-15T02:29:59.194Z,0.90
2019-06-15T02:30:59.189Z,0.50
2019-06-15T02:31:59.181Z,0.80
2019-06-15T02:32:59.162Z,0.70
2019-06-15T02:33:59.139Z,0.90
2019-06-15T02:34:59.159Z,0.70
2019-06-15T02:35:59.132Z,0.60
2019-06-15T02:36:59.121Z,0.90
2019-06-15T02:37:59.098Z,0.80
2019-06-15T02:39:00.085Z,0.60
2019-06-15T02:39:59.579Z,0.60
2019-06-15T02:40:59.572Z,0.80
2019-06-15T02:41:59.097Z,0.70
2019-06-15T02:42:59.065Z,0.80
2019-06-15T02:43:59.034Z,1.00
2019-06-15T02:44:59.081Z,0.90
2019-06-15T02:45:59.022Z,0.50
2019-06-15T02:46:59.582Z,0.60
2019-06-15T02:47:59.016Z,0.90
2019-06-15T02:48:58.987Z,0.80
2019-06-15T02:49:59.078Z,0.60
2019-06-15T02:50:58.954Z,0.80
2019-06-15T02:51:58.962Z,0.80
2019-06-15T02:52:58.966Z,1.00
2019-06-15T02:53:58.925Z,0.80
2019-06-15T02:54:59.094Z,0.70
2019-06-15T02:55:58.897Z,0.70
2019-06-15T02:56:59.570Z,0.60
2019-06-15T02:57:58.881Z,0.90
2019-06-15T02:58:58.879Z,0.80
2019-06-15T02:59:58.899Z,0.70
2019-06-15T03:00:59.584Z,0.60
2019-06-15T03:01:58.836Z,0.70
2019-06-15T03:02:58.825Z,0.60
2019-06-15T03:03:58.817Z,0.90
2019-06-15T03:04:59.586Z,0.80
2019-06-15T03:05:58.808Z,0.80
2019-06-15T03:06:58.779Z,0.60
2019-06-15T03:07:58.786Z,0.90
2019-06-15T03:08:58.764Z,0.80
2019-06-15T03:09:58.763Z,0.70
2019-06-15T03:10:59.099Z,0.50
2019-06-15T03:11:59.577Z,0.80
2019-06-15T03:12:58.723Z,0.80
2019-06-15T03:13:58.716Z,0.70
2019-06-15T03:14:58.710Z,0.80
2019-06-15T03:15:58.703Z,0.90
2019-06-15T03:16:58.699Z,0.90
2019-06-15T03:17:58.687Z,1.00
2019-06-15T03:18:58.657Z,0.70
2019-06-15T03:19:58.638Z,0.80
2019-06-15T03:20:58.645Z,1.00
2019-06-15T03:21:58.644Z,0.80
2019-06-15T03:22:58.615Z,0.80
2019-06-15T03:23:58.603Z,0.70
2019-06-15T03:24:58.592Z,0.90
2019-06-15T03:26:05.559Z,0.80
2019-06-15T03:26:58.563Z,0.80
2019-06-15T03:27:58.566Z,0.80
2019-06-15T03:28:58.542Z,0.90
2019-06-15T03:29:58.538Z,0.80
2019-06-15T03:30:58.637Z,0.90
2019-06-15T03:31:59.071Z,0.70
2019-06-15T03:32:58.526Z,0.90
2019-06-15T03:33:59.075Z,0.50
2019-06-15T03:34:58.477Z,0.70
2019-06-15T03:35:58.481Z,0.80
2019-06-15T03:36:59.092Z,0.70
2019-06-15T03:37:58.474Z,1.10
2019-06-15T03:38:58.445Z,0.90
2019-06-15T03:39:59.090Z,0.80
2019-06-15T03:40:58.420Z,0.80
2019-06-15T03:41:58.399Z,1.00
2019-06-15T03:42:58.408Z,0.90
2019-06-15T03:43:58.396Z,1.00
2019-06-15T03:44:58.372Z,1.00
2019-06-15T03:45:58.390Z,1.00
2019-06-15T03:46:58.359Z,0.90
2019-06-15T03:47:58.376Z,0.70
2019-06-15T03:48:58.350Z,0.90
2019-06-15T03:49:58.330Z,0.90
2019-06-15T03:50:58.624Z,0.80
2019-06-15T03:51:58.300Z,0.90
2019-06-15T03:52:58.288Z,1.00
2019-06-15T03:53:59.147Z,0.70
2019-06-15T03:54:58.263Z,0.70
2019-06-15T03:55:58.289Z,1.20
2019-06-15T03:56:58.280Z,0.90
2019-06-15T03:57:58.233Z,0.90
2019-06-15T03:58:58.224Z,0.90
2019-06-15T03:59:58.214Z,1.00
2019-06-15T04:00:58.319Z,0.90
2019-06-15T04:01:58.215Z,0.70
2019-06-15T04:02:58.219Z,0.80
2019-06-15T04:03:58.176Z,1.00
2019-06-15T04:04:58.184Z,0.90
2019-06-15T04:05:58.170Z,1.10
2019-06-15T04:06:59.077Z,0.90
2019-06-15T04:07:58.138Z,0.90
2019-06-15T04:08:59.070Z,0.70
2019-06-15T04:09:58.097Z,1.00
2019-06-15T04:10:58.097Z,0.90
2019-06-15T04:11:58.117Z,0.80
2019-06-15T04:12:58.600Z,0.80
2019-06-15T04:13:58.100Z,1.10
2019-06-15T04:14:58.084Z,0.70
2019-06-15T04:15:58.037Z,0.80
2019-06-15T04:16:58.599Z,1.00
2019-06-15T04:17:58.061Z,0.80
2019-06-15T04:18:58.046Z,1.10
2019-06-15T04:19:58.006Z,1.00
2019-06-15T04:20:58.011Z,0.80
2019-06-15T04:21:57.978Z,1.00
2019-06-15T04:22:57.958Z,1.00
2019-06-15T04:23:58.035Z,1.10
2019-06-15T04:24:57.949Z,0.90
2019-06-15T04:25:58.586Z,1.00
2019-06-15T04:26:57.949Z,1.10
2019-06-15T04:27:57.929Z,0.90
2019-06-15T04:28:57.907Z,1.00
2019-06-15T04:29:58.585Z,0.90
2019-06-15T04:30:57.880Z,1.10
2019-06-15T04:31:57.885Z,1.00
2019-06-15T04:32:57.874Z,0.90
2019-06-15T04:33:57.844Z,0.90
2019-06-15T04:34:58.577Z,0.90
2019-06-15T04:35:57.839Z,1.10
2019-06-15T04:36:57.831Z,1.10
2019-06-15T04:37:57.814Z,1.00
2019-06-15T04:38:57.811Z,1.20
2019-06-15T04:39:57.796Z,1.30
2019-06-15T04:40:57.802Z,0.90
2019-06-15T04:41:58.135Z,0.90
2019-06-15T04:42:57.755Z,1.00
2019-06-15T04:43:58.610Z,1.00
2019-06-15T04:44:57.722Z,1.20
2019-06-15T04:45:58.592Z,0.90
2019-06-15T04:46:57.726Z,1.00
2019-06-15T04:47:57.704Z,1.10
2019-06-15T04:48:57.689Z,1.00
2019-06-15T04:49:57.672Z,0.60
2019-06-15T04:50:57.661Z,0.90
2019-06-15T04:51:58.097Z,1.10
2019-06-15T04:52:57.651Z,1.00
2019-06-15T04:53:57.656Z,1.10
2019-06-15T04:54:57.618Z,1.00
2019-06-15T04:55:58.585Z,1.00
2019-06-15T04:56:58.103Z,1.00
2019-06-15T04:57:57.583Z,1.30
2019-06-15T04:58:57.623Z,1.10
2019-06-15T04:59:57.563Z,1.10
2019-06-15T05:00:57.547Z,1.10
2019-06-15T05:01:57.575Z,1.00
2019-06-15T05:02:57.530Z,0.90
2019-06-15T05:03:57.532Z,1.10
2019-06-15T05:04:57.526Z,1.00
2019-06-15T05:05:58.089Z,1.10
2019-06-15T05:06:58.083Z,1.20
2019-06-15T05:07:57.481Z,1.50
2019-06-15T05:08:58.078Z,1.10
2019-06-15T05:09:57.459Z,0.90
2019-06-15T05:11:00.090Z,1.10
2019-06-15T05:11:57.440Z,1.30
2019-06-15T05:12:57.618Z,1.20
2019-06-15T05:13:57.435Z,1.00
2019-06-15T05:14:57.429Z,1.10
2019-06-15T05:15:57.397Z,1.00
2019-06-15T05:16:57.378Z,1.40
2019-06-15T05:17:57.410Z,1.10
2019-06-15T05:18:57.358Z,1.10
2019-06-15T05:19:57.348Z,1.10
2019-06-15T05:20:57.355Z,1.00
2019-06-15T05:21:58.081Z,1.20
2019-06-15T05:22:57.601Z,1.20
2019-06-15T05:23:57.330Z,1.00
2019-06-15T05:24:58.097Z,1.10
2019-06-15T05:25:57.285Z,1.10
2019-06-15T05:27:06.299Z,1.10
2019-06-15T05:27:57.283Z,0.90
2019-06-15T05:28:57.249Z,1.10
2019-06-15T05:29:58.116Z,1.20
2019-06-15T05:30:57.229Z,1.00
2019-06-15T05:31:58.081Z,1.10
2019-06-15T05:32:57.611Z,1.20
2019-06-15T05:33:57.211Z,1.20
2019-06-15T05:34:57.187Z,1.00
2019-06-15T05:35:57.170Z,1.20
2019-06-15T05:36:57.162Z,1.00
2019-06-15T05:37:57.608Z,0.90
2019-06-15T05:38:57.141Z,1.10
2019-06-15T05:39:57.145Z,1.10
2019-06-15T05:40:57.129Z,1.00
2019-06-15T05:41:57.110Z,1.00
2019-06-15T05:42:57.127Z,1.00
2019-06-15T05:43:57.086Z,1.00
2019-06-15T05:44:57.085Z,1.30
2019-06-15T05:45:57.064Z,1.00
2019-06-15T05:46:57.063Z,1.50
2019-06-15T05:47:57.058Z,1.10
2019-06-15T05:48:57.067Z,1.00
2019-06-15T05:49:57.020Z,1.10
2019-06-15T05:50:58.697Z,1.40
2019-06-15T05:51:57.022Z,1.10
2019-06-15T05:52:57.583Z,0.90
2019-06-15T05:53:57.113Z,0.80
2019-06-15T05:54:56.982Z,1.10
2019-06-15T05:55:57.670Z,1.00
2019-06-15T05:56:56.957Z,1.30
2019-06-15T05:57:56.934Z,1.10
2019-06-15T05:58:57.187Z,1.20
2019-06-15T05:59:56.911Z,0.90
2019-06-15T06:00:56.899Z,1.70
2019-06-15T06:01:56.896Z,1.10
2019-06-15T06:02:56.902Z,1.20
2019-06-15T06:03:56.885Z,1.20
2019-06-15T06:04:57.580Z,1.00
2019-06-15T06:05:57.605Z,1.30
2019-06-15T06:06:56.875Z,1.20
2019-06-15T06:07:56.848Z,1.20
2019-06-15T06:08:56.854Z,1.20
2019-06-15T06:09:56.836Z,1.30
2019-06-15T06:10:57.587Z,1.10
2019-06-15T06:11:56.786Z,1.10
2019-06-15T06:12:57.586Z,1.10
2019-06-15T06:13:56.779Z,1.20
2019-06-15T06:14:56.757Z,1.30
2019-06-15T06:15:57.608Z,1.30
2019-06-15T06:16:56.733Z,1.40
2019-06-15T06:17:56.720Z,1.20
2019-06-15T06:18:56.731Z,0.90
2019-06-15T06:19:56.712Z,1.20
2019-06-15T06:20:56.722Z,1.00
2019-06-15T06:21:58.334Z,1.20
2019-06-15T06:22:56.674Z,1.20
2019-06-15T06:23:57.112Z,1.00
2019-06-15T06:24:56.666Z,1.10
2019-06-15T06:25:56.661Z,1.10
2019-06-15T06:26:56.649Z,1.00
2019-06-15T06:27:56.627Z,1.20
2019-06-15T06:28:57.592Z,1.10
2019-06-15T06:29:57.605Z,1.20
2019-06-15T06:30:56.604Z,1.10
2019-06-15T06:31:56.571Z,1.20
2019-06-15T06:32:56.569Z,1.10
2019-06-15T06:33:56.579Z,1.00
2019-06-15T06:34:56.543Z,1.20
2019-06-15T06:35:57.104Z,1.00
2019-06-15T06:36:57.087Z,1.10
2019-06-15T06:37:56.513Z,1.10
2019-06-15T06:38:56.604Z,1.10
2019-06-15T06:39:56.506Z,1.20
2019-06-15T06:40:56.499Z,1.20
2019-06-15T06:41:56.462Z,1.10
2019-06-15T06:42:57.086Z,1.00
2019-06-15T06:43:56.454Z,1.10
2019-06-15T06:44:56.433Z,1.00
2019-06-15T06:45:56.437Z,1.20
2019-06-15T06:46:56.438Z,1.00
2019-06-15T06:47:56.404Z,1.00
2019-06-15T06:48:56.614Z,1.20
2019-06-15T06:49:56.378Z,1.20
2019-06-15T06:50:56.390Z,1.10
2019-06-15T06:51:56.355Z,0.90
2019-06-15T06:52:57.094Z,1.00
2019-06-15T06:53:56.652Z,1.40
2019-06-15T06:54:56.323Z,1.10
2019-06-15T06:55:56.332Z,1.10
2019-06-15T06:56:56.299Z,1.10
2019-06-15T06:57:57.358Z,1.20
2019-06-15T06:58:56.380Z,1.10
2019-06-15T06:59:56.287Z,1.40
2019-06-15T07:00:57.094Z,1.00
2019-06-15T07:01:56.249Z,1.20
2019-06-15T07:02:57.168Z,1.20
2019-06-15T07:03:56.228Z,1.10
2019-06-15T07:04:56.243Z,1.40
2019-06-15T07:05:56.204Z,1.00
2019-06-15T07:06:56.247Z,1.00
2019-06-15T07:07:56.186Z,1.10
2019-06-15T07:08:56.175Z,1.20
2019-06-15T07:09:56.203Z,1.20
2019-06-15T07:10:57.107Z,1.10
2019-06-15T07:11:56.137Z,1.20
2019-06-15T07:12:56.155Z,1.00
2019-06-15T07:13:57.105Z,1.00
2019-06-15T07:14:56.644Z,1.10
2019-06-15T07:15:56.104Z,1.10
2019-06-15T07:16:56.618Z,1.20
2019-06-15T07:17:56.078Z,1.20
2019-06-15T07:18:56.066Z,1.20
2019-06-15T07:19:56.077Z,1.10
2019-06-15T07:20:56.061Z,1.10
2019-06-15T07:21:56.042Z,1.70
2019-06-15T07:22:56.035Z,1.30
2019-06-15T07:23:56.015Z,1.00
2019-06-15T07:24:56.011Z,1.20
2019-06-15T07:25:56.005Z,1.10
2019-06-15T07:26:56.007Z,1.20
2019-06-15T07:28:07.587Z,1.00
2019-06-15T07:28:55.960Z,1.10
2019-06-15T07:29:55.965Z,1.00
2019-06-15T07:30:56.118Z,1.00
2019-06-15T07:31:56.666Z,1.20
2019-06-15T07:32:55.942Z,1.00
2019-06-15T07:33:55.915Z,1.10
2019-06-15T07:34:55.899Z,1.10
2019-06-15T07:35:55.886Z,1.20
2019-06-15T07:36:56.613Z,1.30
2019-06-15T07:37:55.857Z,1.20
2019-06-15T07:38:55.914Z,1.20
2019-06-15T07:39:56.106Z,1.00
2019-06-15T07:40:55.834Z,1.20
2019-06-15T07:41:55.829Z,1.10
2019-06-15T07:42:55.833Z,1.10
2019-06-15T07:43:55.829Z,1.00
2019-06-15T07:44:56.108Z,1.00
2019-06-15T07:45:55.783Z,1.20
2019-06-15T07:46:55.803Z,0.90
2019-06-15T07:47:55.760Z,1.10
2019-06-15T07:48:55.744Z,1.00
2019-06-15T07:49:56.121Z,1.20
2019-06-15T07:50:55.744Z,1.20
2019-06-15T07:51:55.731Z,0.90
2019-06-15T07:52:55.697Z,1.10
2019-06-15T07:53:56.637Z,1.10
2019-06-15T07:54:55.708Z,1.40
2019-06-15T07:55:56.116Z,0.90
2019-06-15T07:56:55.680Z,0.90
2019-06-15T07:57:55.655Z,0.90
2019-06-15T07:58:55.638Z,1.00
2019-06-15T07:59:55.625Z,1.00
2019-06-15T08:00:55.725Z,0.90
2019-06-15T08:01:55.642Z,1.30
2019-06-15T08:02:56.089Z,1.20
2019-06-15T08:03:55.587Z,1.10
2019-06-15T08:04:55.573Z,1.00
2019-06-15T08:05:55.579Z,0.90
2019-06-15T08:06:56.111Z,0.90
2019-06-15T08:07:55.556Z,1.20
2019-06-15T08:08:55.527Z,1.30
2019-06-15T08:09:55.535Z,1.30
2019-06-15T08:10:55.531Z,1.10
2019-06-15T08:11:55.501Z,1.20
2019-06-15T08:12:55.493Z,0.90
2019-06-15T08:13:56.111Z,1.10
2019-06-15T08:14:55.472Z,1.20
2019-06-15T08:15:55.482Z,1.10
2019-06-15T08:16:55.477Z,1.00
2019-06-15T08:17:55.435Z,1.10
2019-06-15T08:18:55.435Z,1.10
2019-06-15T08:19:55.439Z,1.00
2019-06-15T08:20:55.444Z,1.10
2019-06-15T08:21:55.403Z,0.80
2019-06-15T08:22:55.374Z,1.00
2019-06-15T08:23:56.104Z,1.20
2019-06-15T08:24:55.378Z,1.10
2019-06-15T08:25:55.377Z,1.10
2019-06-15T08:26:55.414Z,1.00
2019-06-15T08:27:55.320Z,0.90
2019-06-15T08:28:56.100Z,1.10
2019-06-15T08:29:56.111Z,1.20
2019-06-15T08:30:55.312Z,1.20
2019-06-15T08:31:55.432Z,0.90
2019-06-15T08:32:55.276Z,1.40
2019-06-15T08:33:55.257Z,1.20
2019-06-15T08:34:55.246Z,0.90
2019-06-15T08:35:55.625Z,1.30
2019-06-15T08:36:56.115Z,1.00
2019-06-15T08:37:55.214Z,1.10
2019-06-15T08:38:56.156Z,1.10
2019-06-15T08:39:56.091Z,1.00
2019-06-15T08:40:55.191Z,1.10
2019-06-15T08:41:57.008Z,1.20
2019-06-15T08:42:56.119Z,0.90
2019-06-15T08:43:56.106Z,1.20
2019-06-15T08:44:55.134Z,1.10
2019-06-15T08:45:55.137Z,1.30
2019-06-15T08:46:55.218Z,1.10
2019-06-15T08:47:55.126Z,1.10
2019-06-15T08:48:55.133Z,1.20
2019-06-15T08:49:55.248Z,1.30
2019-06-15T08:50:55.099Z,1.00
2019-06-15T08:51:55.078Z,1.10
2019-06-15T08:52:55.719Z,1.10
2019-06-15T08:53:55.055Z,1.20
2019-06-15T08:54:55.034Z,1.00
2019-06-15T08:55:55.032Z,1.10
2019-06-15T08:56:55.059Z,1.10
2019-06-15T08:57:55.012Z,1.10
2019-06-15T08:58:55.963Z,1.00
2019-06-15T08:59:54.997Z,0.90
2019-06-15T09:00:54.964Z,1.20
2019-06-15T09:01:54.969Z,1.10
2019-06-15T09:02:54.967Z,1.40
2019-06-15T09:03:55.609Z,1.20
2019-06-15T09:04:54.930Z,1.30
2019-06-15T09:05:54.926Z,1.00
2019-06-15T09:06:54.917Z,1.20
2019-06-15T09:07:54.906Z,1.10
2019-06-15T09:08:54.891Z,1.40
2019-06-15T09:09:54.885Z,1.20
2019-06-15T09:10:54.856Z,1.40
2019-06-15T09:11:54.857Z,1.20
2019-06-15T09:12:54.863Z,1.10
2019-06-15T09:13:54.833Z,1.00
2019-06-15T09:14:54.814Z,1.40
2019-06-15T09:15:54.819Z,1.40
2019-06-15T09:16:54.823Z,1.20
2019-06-15T09:17:54.836Z,1.20
2019-06-15T09:18:57.421Z,1.20
2019-06-15T09:19:54.778Z,1.20
2019-06-15T09:20:54.784Z,1.30
2019-06-15T09:21:54.751Z,1.30
2019-06-15T09:22:55.603Z,1.10
2019-06-15T09:23:54.729Z,1.20
2019-06-15T09:24:54.720Z,0.90
2019-06-15T09:25:55.642Z,1.20
2019-06-15T09:26:55.115Z,0.90
2019-06-15T09:27:54.709Z,1.10
2019-06-15T09:28:54.695Z,1.20
2019-06-15T09:29:54.654Z,1.10
2019-06-15T09:30:54.656Z,1.30
2019-06-15T09:31:54.692Z,1.20
2019-06-15T09:32:54.626Z,1.20
2019-06-15T09:33:54.634Z,0.90
2019-06-15T09:34:54.651Z,1.30
2019-06-15T09:35:54.593Z,1.30
2019-06-15T09:36:54.596Z,1.20
2019-06-15T09:37:54.592Z,1.20
2019-06-15T09:38:54.577Z,1.00
2019-06-15T09:39:54.551Z,1.30
2019-06-15T09:40:54.546Z,1.40
2019-06-15T09:41:54.524Z,1.10
2019-06-15T09:42:54.555Z,1.10
2019-06-15T09:43:55.142Z,1.10
2019-06-15T09:44:55.109Z,1.30
2019-06-15T09:45:54.480Z,1.20
2019-06-15T09:46:54.473Z,1.20
2019-06-15T09:47:54.477Z,1.10
2019-06-15T09:48:54.477Z,1.30
2019-06-15T09:49:54.439Z,1.40
2019-06-15T09:50:54.446Z,1.20
2019-06-15T09:51:55.104Z,1.50
2019-06-15T09:52:54.450Z,1.30
2019-06-15T09:53:54.420Z,1.30
2019-06-15T09:54:54.382Z,1.30
2019-06-15T09:55:55.106Z,1.20
2019-06-15T09:56:54.405Z,1.10
2019-06-15T09:57:54.377Z,1.30
2019-06-15T09:58:54.362Z,1.10
2019-06-15T09:59:54.327Z,1.20
2019-06-15T10:00:54.384Z,1.40
2019-06-15T10:01:54.340Z,1.10
2019-06-15T10:02:54.306Z,1.20
2019-06-15T10:03:54.310Z,1.20
2019-06-15T10:04:55.102Z,1.20
2019-06-15T10:05:54.272Z,1.20
2019-06-15T10:06:55.112Z,1.20
2019-06-15T10:07:54.270Z,1.00
2019-06-15T10:08:54.270Z,1.10
2019-06-15T10:09:54.221Z,1.20
2019-06-15T10:10:54.233Z,1.10
2019-06-15T10:11:54.209Z,1.10
2019-06-15T10:12:54.206Z,0.90
2019-06-15T10:13:54.195Z,1.40
2019-06-15T10:14:54.183Z,1.10
2019-06-15T10:15:54.163Z,1.30
2019-06-15T10:16:54.159Z,1.10
2019-06-15T10:17:54.623Z,1.30
2019-06-15T10:18:54.152Z,1.20
2019-06-15T10:19:54.131Z,1.20
2019-06-15T10:20:54.105Z,1.00
2019-06-15T10:21:54.091Z,1.00
2019-06-15T10:22:54.112Z,0.90
2019-06-15T10:23:54.077Z,1.30
2019-06-15T10:24:54.623Z,1.30
2019-06-15T10:25:54.382Z,1.00
2019-06-15T10:26:54.038Z,1.10
2019-06-15T10:27:54.045Z,1.20
2019-06-15T10:28:54.053Z,1.30
2019-06-15T10:29:54.623Z,1.10
2019-06-15T10:30:54.021Z,1.00
2019-06-15T10:31:53.985Z,1.50
2019-06-15T10:32:54.114Z,1.20
2019-06-15T10:33:53.971Z,1.10
2019-06-15T10:34:54.622Z,1.00
2019-06-15T10:35:54.614Z,1.10
2019-06-15T10:36:53.950Z,1.20
2019-06-15T10:37:53.950Z,1.20
2019-06-15T10:38:53.943Z,1.10
2019-06-15T10:39:53.914Z,1.40
2019-06-15T10:40:53.889Z,1.20
2019-06-15T10:41:54.604Z,1.00
2019-06-15T10:42:53.880Z,1.20
2019-06-15T10:43:53.872Z,1.00
2019-06-15T10:44:54.654Z,1.00
2019-06-15T10:45:53.836Z,0.90
2019-06-15T10:46:53.854Z,1.10
2019-06-15T10:47:54.611Z,1.10
2019-06-15T10:48:55.735Z,1.30
2019-06-15T10:49:53.805Z,1.20
2019-06-15T10:50:53.775Z,1.30
2019-06-15T10:51:53.772Z,1.30
2019-06-15T10:52:53.770Z,1.10
2019-06-15T10:53:53.756Z,1.00
2019-06-15T10:54:53.892Z,1.10
2019-06-15T10:55:53.723Z,1.00
2019-06-15T10:56:53.719Z,1.10
2019-06-15T10:57:53.709Z,1.10
2019-06-15T10:58:53.726Z,1.00
2019-06-15T10:59:57.259Z,1.00
2019-06-15T11:00:53.679Z,1.20
2019-06-15T11:01:53.661Z,1.30
2019-06-15T11:02:53.651Z,1.10
2019-06-15T11:03:53.660Z,1.00
2019-06-15T11:04:53.643Z,1.10
2019-06-15T11:05:54.932Z,1.10
2019-06-15T11:06:54.627Z,1.10
2019-06-15T11:07:54.104Z,1.00
2019-06-15T11:08:53.617Z,1.10
2019-06-15T11:09:53.595Z,1.20
2019-06-15T11:10:53.599Z,1.20
2019-06-15T11:11:53.566Z,1.10
2019-06-15T11:12:53.547Z,1.10
2019-06-15T11:13:53.577Z,1.20
2019-06-15T11:14:53.580Z,1.10
2019-06-15T11:15:54.131Z,1.00
2019-06-15T11:16:53.520Z,0.90
2019-06-15T11:17:53.499Z,1.00
2019-06-15T11:18:53.519Z,1.10
2019-06-15T11:19:53.472Z,0.90
2019-06-15T11:20:53.488Z,0.90
2019-06-15T11:21:53.460Z,0.90
2019-06-15T11:22:53.498Z,1.00
2019-06-15T11:23:53.444Z,1.00
2019-06-15T11:24:53.426Z,1.00
2019-06-15T11:25:53.442Z,0.90
2019-06-15T11:26:53.404Z,0.80
2019-06-15T11:27:54.117Z,0.80
2019-06-15T11:28:53.404Z,0.90
2019-06-15T11:29:53.366Z,1.10
2019-06-15T11:30:53.394Z,0.90
2019-06-15T11:31:53.343Z,0.90
2019-06-15T11:32:53.346Z,0.80
2019-06-15T11:33:53.618Z,1.20
2019-06-15T11:34:53.309Z,0.90
2019-06-15T11:35:53.315Z,1.10
2019-06-15T11:36:54.114Z,0.90
2019-06-15T11:37:53.283Z,0.90
2019-06-15T11:38:53.313Z,1.00
2019-06-15T11:39:53.350Z,0.90
2019-06-15T11:40:53.248Z,0.80
2019-06-15T11:41:53.241Z,0.90
2019-06-15T11:42:53.230Z,1.00
2019-06-15T11:43:53.235Z,1.10
2019-06-15T11:44:54.187Z,0.90
2019-06-15T11:45:54.133Z,1.00
2019-06-15T11:46:53.199Z,1.10
2019-06-15T11:47:53.172Z,0.90
2019-06-15T11:48:53.184Z,1.00
2019-06-15T11:49:53.180Z,1.20
2019-06-15T11:50:53.166Z,0.70
2019-06-15T11:51:53.159Z,0.80
2019-06-15T11:52:54.123Z,1.00
2019-06-15T11:53:53.133Z,1.00
2019-06-15T11:54:53.121Z,1.00
2019-06-15T11:55:53.101Z,0.90
2019-06-15T11:56:53.086Z,0.90
2019-06-15T11:57:53.106Z,0.90
2019-06-15T11:58:53.074Z,0.80
2019-06-15T11:59:53.058Z,0.90
2019-06-15T12:00:53.049Z,0.70
2019-06-15T12:01:53.029Z,0.90
2019-06-15T12:02:53.029Z,0.90
2019-06-15T12:03:53.012Z,1.00
2019-06-15T12:04:58.334Z,0.70
2019-06-15T12:05:52.989Z,0.70
2019-06-15T12:06:52.991Z,1.00
2019-06-15T12:07:53.004Z,0.80
2019-06-15T12:08:53.621Z,1.00
2019-06-15T12:09:52.979Z,0.80
2019-06-15T12:10:52.931Z,0.90
2019-06-15T12:11:52.931Z,0.90
2019-06-15T12:12:52.913Z,0.80
2019-06-15T12:13:53.644Z,0.90
2019-06-15T12:14:52.923Z,0.70
2019-06-15T12:15:52.896Z,0.80
2019-06-15T12:16:52.873Z,1.00
2019-06-15T12:17:53.617Z,1.00
2019-06-15T12:18:52.919Z,0.80
2019-06-15T12:19:53.127Z,0.90
2019-06-15T12:20:52.842Z,0.90
2019-06-15T12:21:52.843Z,0.90
2019-06-15T12:22:52.837Z,0.80
2019-06-15T12:23:52.806Z,1.00
2019-06-15T12:24:52.824Z,1.00
2019-06-15T12:25:52.800Z,0.90
2019-06-15T12:26:52.791Z,0.80
2019-06-15T12:27:52.767Z,1.00
2019-06-15T12:28:52.757Z,0.80
2019-06-15T12:29:52.757Z,0.80
2019-06-15T12:30:52.756Z,0.70
2019-06-15T12:31:52.752Z,1.10
2019-06-15T12:32:52.742Z,1.10
2019-06-15T12:33:52.734Z,0.90
2019-06-15T12:34:52.818Z,0.90
2019-06-15T12:35:53.635Z,0.80
2019-06-15T12:36:52.719Z,0.80
2019-06-15T12:37:53.628Z,0.90
2019-06-15T12:38:52.640Z,1.00
2019-06-15T12:39:52.630Z,0.70
2019-06-15T12:40:53.137Z,0.90
2019-06-15T12:41:53.131Z,0.90
2019-06-15T12:42:53.124Z,0.80
2019-06-15T12:43:52.618Z,0.60
2019-06-15T12:44:52.614Z,0.90
2019-06-15T12:45:52.585Z,1.00
2019-06-15T12:46:52.570Z,0.70
2019-06-15T12:47:53.114Z,0.90
2019-06-15T12:48:53.135Z,0.80
2019-06-15T12:49:52.548Z,0.70
2019-06-15T12:50:52.541Z,0.90
2019-06-15T12:51:52.521Z,0.90
2019-06-15T12:52:53.111Z,0.80
2019-06-15T12:53:52.496Z,0.80
2019-06-15T12:54:52.499Z,1.00
2019-06-15T12:55:52.522Z,0.70
2019-06-15T12:56:52.520Z,0.80
2019-06-15T12:57:53.066Z,1.10
2019-06-15T12:58:52.431Z,0.80
2019-06-15T12:59:52.444Z,0.80
2019-06-15T13:01:02.456Z,0.80
2019-06-15T13:01:52.403Z,0.70
2019-06-15T13:02:52.394Z,0.70
2019-06-15T13:03:53.129Z,0.80
2019-06-15T13:04:52.373Z,1.00
2019-06-15T13:05:52.636Z,0.80
2019-06-15T13:06:53.115Z,0.90
2019-06-15T13:07:53.114Z,0.80
2019-06-15T13:08:53.115Z,0.70
2019-06-15T13:09:52.316Z,0.70
2019-06-15T13:10:52.327Z,0.90
2019-06-15T13:11:52.351Z,0.80
2019-06-15T13:12:52.323Z,0.80
2019-06-15T13:13:52.286Z,0.70
2019-06-15T13:14:52.275Z,0.80
2019-06-15T13:15:52.279Z,1.00
2019-06-15T13:16:52.269Z,0.80
2019-06-15T13:17:52.239Z,0.70